Time;durP1;ratioP1;P1;durP2;ratioP2;P2;SDS_P1;SDS_P2;PMS_P1;PMS_P2;Temp;Humidity;BMP_temperature;BMP_pressure;BME280_temperature;BME280_humidity;BME280_pressure;Samples;Min_cycle;Max_cycle;Signal;HPM_P1;HPM_P2
2021/09/17 00:01:40;;;;;;;20.90;10.32;;;;;;;11.24;100.00;101789.13;5200152;28;20036;-73
2021/09/17 00:04:10;;;;;;;23.35;12.02;;;;;;;11.22;100.00;101786.59;5200995;28;20344;-73
2021/09/17 00:06:41;;;;;;;24.75;12.65;;;;;;;11.19;100.00;101783.34;5199657;28;20032;-72
2021/09/17 00:09:11;;;;;;;26.67;13.30;;;;;;;11.17;100.00;101791.56;5200135;28;20025;-72
2021/09/17 00:11:42;;;;;;;22.13;12.23;;;;;;;11.15;100.00;101780.97;5200478;28;20378;-73
2021/09/17 00:14:13;;;;;;;25.15;13.35;;;;;;;11.13;100.00;101782.09;5200221;28;20018;-74
2021/09/17 00:16:44;;;;;;;25.55;13.52;;;;;;;11.12;100.00;101778.56;5200296;28;20036;-72
2021/09/17 00:19:14;;;;;;;22.75;12.80;;;;;;;11.12;100.00;101781.25;5199645;28;20022;-72
2021/09/17 00:21:45;;;;;;;24.10;13.52;;;;;;;11.12;100.00;101783.09;5200095;28;20022;-72
2021/09/17 00:24:15;;;;;;;18.33;11.00;;;;;;;11.09;100.00;101775.31;5199972;28;20048;-74
2021/09/17 00:26:46;;;;;;;18.23;10.10;;;;;;;11.08;100.00;101785.22;5199828;28;20478;-72
2021/09/17 00:29:16;;;;;;;13.88;7.75;;;;;;;11.09;100.00;101778.88;5199389;28;20041;-72
2021/09/17 00:31:46;;;;;;;12.65;8.98;;;;;;;11.10;100.00;101777.03;5199621;28;20116;-72
2021/09/17 00:34:17;;;;;;;18.98;12.52;;;;;;;11.10;100.00;101785.09;5199741;28;20379;-73
2021/09/17 00:36:48;;;;;;;26.95;15.00;;;;;;;11.11;100.00;101776.03;5199508;28;20025;-72
2021/09/17 00:39:18;;;;;;;24.98;14.55;;;;;;;11.12;100.00;101775.88;5199285;28;20380;-73
2021/09/17 00:41:48;;;;;;;21.83;13.27;;;;;;;11.12;100.00;101775.03;5199431;28;20086;-74
2021/09/17 00:44:28;;;;;;;18.02;10.77;;;;;;;11.13;100.00;101760.59;5199537;28;20042;-72
2021/09/17 00:46:58;;;;;;;20.55;12.15;;;;;;;11.16;100.00;101765.69;5199061;28;20061;-72
2021/09/17 00:49:28;;;;;;;17.45;10.38;;;;;;;11.19;100.00;101760.00;5199314;28;20490;-72
2021/09/17 00:51:59;;;;;;;22.27;13.70;;;;;;;11.23;100.00;101758.72;5198874;28;20060;-73
2021/09/17 00:54:34;;;;;;;27.65;12.70;;;;;;;11.26;100.00;101763.81;5199485;28;20029;-74
2021/09/17 00:57:05;;;;;;;19.27;10.57;;;;;;;11.28;100.00;101758.28;5198479;28;20021;-72
2021/09/17 00:59:35;;;;;;;20.67;11.60;;;;;;;11.31;100.00;101763.38;5199191;28;20021;-73
2021/09/17 01:02:06;;;;;;;22.38;12.30;;;;;;;11.35;100.00;101767.47;5199926;28;20028;-72
2021/09/17 01:04:36;;;;;;;27.73;14.25;;;;;;;11.39;100.00;101766.97;5199328;28;20030;-74
2021/09/17 01:07:07;;;;;;;24.40;14.35;;;;;;;11.45;100.00;101767.41;5198829;28;20498;-75
2021/09/17 01:09:48;;;;;;;21.65;14.20;;;;;;;11.47;100.00;101760.03;5199212;28;20017;-72
2021/09/17 01:12:39;;;;;;;21.02;13.82;;;;;;;11.50;100.00;101757.91;5199239;28;20094;-72
2021/09/17 01:15:19;;;;;;;29.02;14.85;;;;;;;11.51;100.00;101756.91;5199262;28;20096;-71
2021/09/17 01:17:49;;;;;;;28.92;14.93;;;;;;;11.54;100.00;101756.59;5199035;28;20022;-73
2021/09/17 01:20:21;;;;;;;23.30;13.05;;;;;;;11.57;100.00;101764.34;5199324;28;20028;-72
2021/09/17 01:23:01;;;;;;;21.30;12.90;;;;;;;11.65;100.00;101755.56;5198898;28;20079;-74
2021/09/17 01:25:32;;;;;;;22.70;13.75;;;;;;;11.69;100.00;101756.91;5199567;28;20045;-72
2021/09/17 01:28:04;;;;;;;21.52;13.10;;;;;;;11.72;100.00;101753.94;5198940;28;20470;-73
2021/09/17 01:30:34;;;;;;;31.85;13.93;;;;;;;11.75;100.00;101744.75;5199464;28;20033;-74
2021/09/17 01:33:05;;;;;;;21.98;14.38;;;;;;;11.77;100.00;101746.25;5198958;28;20025;-73
2021/09/17 01:35:35;;;;;;;22.30;13.52;;;;;;;11.81;100.00;101738.75;5199141;28;20387;-75
2021/09/17 01:38:06;;;;;;;24.00;14.40;;;;;;;11.82;100.00;101744.00;5198522;28;20096;-73
2021/09/17 01:40:37;;;;;;;17.83;12.15;;;;;;;11.82;100.00;101735.09;5198577;28;20116;-74
2021/09/17 01:43:08;;;;;;;23.58;13.57;;;;;;;11.82;100.00;101732.41;5198955;28;20403;-72
2021/09/17 01:45:38;;;;;;;25.10;15.10;;;;;;;11.82;100.00;101727.88;5199284;28;20028;-73
2021/09/17 01:48:09;;;;;;;22.70;13.63;;;;;;;11.85;100.00;101732.09;5198464;28;20029;-75
2021/09/17 01:50:39;;;;;;;27.55;14.45;;;;;;;11.89;100.00;101733.47;5198490;28;20025;-72
2021/09/17 01:53:10;;;;;;;26.08;14.52;;;;;;;11.91;100.00;101726.09;5198690;28;20034;-73
2021/09/17 01:55:41;;;;;;;21.95;14.63;;;;;;;11.94;100.00;101723.09;5198991;28;20502;-72
2021/09/17 01:58:12;;;;;;;26.10;15.88;;;;;;;11.97;100.00;101722.81;5198476;28;20040;-72
2021/09/17 02:00:43;;;;;;;23.95;15.32;;;;;;;12.00;100.00;101719.81;5198690;28;20017;-72
2021/09/17 02:03:14;;;;;;;28.02;15.35;;;;;;;12.02;100.00;101714.28;5198506;28;20030;-72
2021/09/17 02:05:44;;;;;;;32.17;14.90;;;;;;;12.03;100.00;101708.72;5199093;28;20461;-72
2021/09/17 02:08:21;;;;;;;23.15;14.77;;;;;;;12.03;100.00;101711.41;5198282;28;20022;-73
2021/09/17 02:10:52;;;;;;;23.70;14.45;;;;;;;12.03;100.00;101707.88;5202397;28;20041;-72
2021/09/17 02:13:37;;;;;;;26.07;14.93;;;;;;;12.02;100.00;101703.50;5202399;28;20113;-72
2021/09/17 02:16:08;;;;;;;23.75;13.63;;;;;;;12.01;100.00;101707.22;5202601;28;20033;-71
2021/09/17 02:18:38;;;;;;;25.10;14.57;;;;;;;11.99;100.00;101709.19;5202438;28;20072;-72
2021/09/17 02:21:09;;;;;;;25.00;14.55;;;;;;;11.97;100.00;101703.97;5201707;28;20106;-72
2021/09/17 02:23:39;;;;;;;22.27;13.02;;;;;;;11.90;100.00;101708.28;5202157;28;20025;-73
2021/09/17 02:26:10;;;;;;;23.13;13.23;;;;;;;11.81;100.00;101706.50;5201962;28;20033;-71
2021/09/17 02:28:40;;;;;;;31.20;14.40;;;;;;;11.74;100.00;101695.47;5201870;28;20021;-74
2021/09/17 02:31:11;;;;;;;24.33;13.13;;;;;;;11.66;100.00;101698.94;5201733;28;20409;-71
2021/09/17 02:33:42;;;;;;;28.65;14.18;;;;;;;11.58;100.00;101698.00;5200616;28;20059;-71
2021/09/17 02:36:12;;;;;;;30.33;14.77;;;;;;;11.50;100.00;101689.88;5201225;28;20022;-72
2021/09/17 02:38:43;;;;;;;27.48;14.77;;;;;;;11.41;100.00;101688.94;5201928;28;20036;-72
2021/09/17 02:41:13;;;;;;;29.98;15.18;;;;;;;11.33;100.00;101684.31;5201726;28;20071;-72
2021/09/17 02:43:44;;;;;;;27.48;15.27;;;;;;;11.27;100.00;101686.75;5201583;28;20025;-72
2021/09/17 02:46:14;;;;;;;26.45;15.43;;;;;;;11.19;100.00;101681.28;5202045;28;20026;-72
2021/09/17 02:48:45;;;;;;;30.27;17.48;;;;;;;11.16;100.00;101685.13;5201985;28;20096;-73
2021/09/17 02:51:15;;;;;;;28.88;16.40;;;;;;;11.10;100.00;101681.22;5201457;28;20619;-72
2021/09/17 02:53:46;;;;;;;26.88;16.65;;;;;;;11.06;100.00;101682.50;5201977;28;20029;-73
2021/09/17 02:56:16;;;;;;;27.42;16.05;;;;;;;11.02;100.00;101674.88;5201495;28;20022;-74
2021/09/17 02:58:47;;;;;;;27.35;15.60;;;;;;;10.98;100.00;101679.69;5201652;28;20029;-72
2021/09/17 03:01:17;;;;;;;25.52;13.50;;;;;;;10.94;100.00;101674.78;5201209;28;20033;-73
2021/09/17 03:03:48;;;;;;;19.92;12.65;;;;;;;10.90;100.00;101671.56;5201921;28;20124;-72
2021/09/17 03:06:18;;;;;;;76.57;15.55;;;;;;;10.86;100.00;101664.78;5201461;28;20394;-72
2021/09/17 03:08:49;;;;;;;20.80;12.80;;;;;;;10.83;100.00;101665.91;5201729;28;20025;-72
2021/09/17 03:11:20;;;;;;;25.00;12.23;;;;;;;10.80;100.00;101657.34;5200994;28;20026;-72
2021/09/17 03:13:50;;;;;;;14.40;10.48;;;;;;;10.76;100.00;101655.94;5201167;28;20449;-73
2021/09/17 03:16:21;;;;;;;18.13;8.35;;;;;;;10.71;100.00;101655.53;5201025;28;20108;-73
2021/09/17 03:18:51;;;;;;;10.50;7.18;;;;;;;10.65;100.00;101651.59;5201266;28;20056;-73
2021/09/17 03:21:22;;;;;;;20.75;10.15;;;;;;;10.61;100.00;101655.56;5199771;28;20029;-72
2021/09/17 03:23:52;;;;;;;35.55;13.35;;;;;;;10.56;100.00;101653.31;5200786;28;20048;-72
2021/09/17 03:26:23;;;;;;;25.13;14.05;;;;;;;10.53;100.00;101653.59;5200717;28;20505;-71
2021/09/17 03:28:53;;;;;;;25.90;14.10;;;;;;;10.48;100.00;101641.63;5200671;28;20049;-72
2021/09/17 03:31:24;;;;;;;36.22;16.55;;;;;;;10.45;100.00;101641.94;5200796;28;20033;-72
2021/09/17 03:33:55;;;;;;;25.98;13.82;;;;;;;10.43;100.00;101638.53;5200884;28;20116;-72
2021/09/17 03:36:26;;;;;;;120.95;16.77;;;;;;;10.39;100.00;101635.28;5200693;28;20391;-72
2021/09/17 03:38:57;;;;;;;42.03;12.73;;;;;;;10.33;100.00;101634.03;5200628;28;20025;-73
2021/09/17 03:41:28;;;;;;;21.83;11.65;;;;;;;10.28;100.00;101636.31;5200514;28;20052;-72
2021/09/17 03:43:58;;;;;;;50.72;13.18;;;;;;;10.24;100.00;101637.63;5200713;28;20033;-71
2021/09/17 03:46:29;;;;;;;21.95;13.05;;;;;;;10.25;100.00;101638.47;5200524;28;20053;-71
2021/09/17 03:48:59;;;;;;;24.83;14.82;;;;;;;10.24;100.00;101634.06;5200630;28;20037;-75
2021/09/17 03:51:30;;;;;;;20.38;12.63;;;;;;;10.22;100.00;101627.97;5200127;28;20571;-73
2021/09/17 03:54:00;;;;;;;19.45;12.30;;;;;;;10.20;100.00;101630.81;5200531;28;20466;-73
2021/09/17 03:56:31;;;;;;;23.48;14.25;;;;;;;10.18;100.00;101630.09;5200428;28;20394;-74
2021/09/17 03:59:01;;;;;;;31.00;15.73;;;;;;;10.16;100.00;101631.25;5200639;28;20493;-75
2021/09/17 04:01:32;;;;;;;30.50;13.63;;;;;;;10.13;100.00;101629.69;5200301;28;20115;-73
2021/09/17 04:04:02;;;;;;;63.00;11.75;;;;;;;10.09;100.00;101618.41;5200287;28;20061;-74
2021/09/17 04:06:33;;;;;;;45.72;10.93;;;;;;;10.05;100.00;101618.84;5199987;28;20356;-72
2021/09/17 04:09:03;;;;;;;13.20;9.30;;;;;;;10.01;100.00;101623.63;5200266;28;20057;-72
2021/09/17 04:11:34;;;;;;;13.93;9.02;;;;;;;9.99;100.00;101622.97;5200593;28;20494;-73
2021/09/17 04:14:04;;;;;;;11.27;7.45;;;;;;;9.98;100.00;101626.59;5200102;28;20478;-73
2021/09/17 04:16:35;;;;;;;16.38;10.30;;;;;;;9.96;100.00;101622.38;5200127;28;20390;-73
2021/09/17 04:19:05;;;;;;;17.05;9.65;;;;;;;9.95;100.00;101632.25;5199942;28;20434;-73
2021/09/17 04:21:36;;;;;;;21.48;12.00;;;;;;;9.92;100.00;101624.50;5200050;28;20057;-73
2021/09/17 04:24:06;;;;;;;30.58;15.23;;;;;;;9.94;100.00;101627.91;5199713;28;20040;-74
2021/09/17 04:26:37;;;;;;;28.90;15.27;;;;;;;9.93;100.00;101631.53;5199839;28;20031;-73
2021/09/17 04:29:08;;;;;;;24.50;14.45;;;;;;;9.91;100.00;101630.84;5199189;28;20124;-72
2021/09/17 04:31:38;;;;;;;28.98;14.90;;;;;;;9.92;100.00;101632.53;5199207;28;20108;-73
2021/09/17 04:34:09;;;;;;;20.88;11.35;;;;;;;9.95;100.00;101632.25;5199692;28;20075;-74
2021/09/17 04:36:39;;;;;;;27.75;14.18;;;;;;;9.97;100.00;101632.09;5199603;28;20026;-73
2021/09/17 04:39:09;;;;;;;24.10;13.52;;;;;;;9.94;100.00;101630.56;5199477;28;20475;-71
2021/09/17 04:41:40;;;;;;;22.35;13.45;;;;;;;9.90;100.00;101625.66;5199591;28;20091;-73
2021/09/17 04:44:11;;;;;;;28.92;15.18;;;;;;;9.86;100.00;101622.41;5199436;28;20037;-73
2021/09/17 04:46:41;;;;;;;26.10;13.48;;;;;;;9.81;100.00;101625.50;5199244;28;20033;-73
2021/09/17 04:49:12;;;;;;;27.10;15.63;;;;;;;9.80;100.00;101631.00;5199478;28;20036;-72
2021/09/17 04:51:42;;;;;;;32.70;15.15;;;;;;;9.79;100.00;101627.50;5199509;28;20033;-73
2021/09/17 04:54:13;;;;;;;27.08;15.35;;;;;;;9.78;100.00;101632.97;5199694;28;20025;-73
2021/09/17 04:56:43;;;;;;;28.50;13.15;;;;;;;9.75;100.00;101630.59;5199188;28;20110;-72
2021/09/17 04:59:14;;;;;;;22.88;12.75;;;;;;;9.72;100.00;101629.03;5199391;28;20106;-72
2021/09/17 05:01:44;;;;;;;25.05;12.73;;;;;;;9.71;100.00;101631.84;5199274;28;20033;-72
2021/09/17 05:04:15;;;;;;;20.95;12.90;;;;;;;9.67;100.00;101643.84;5199760;28;20110;-75
2021/09/17 05:06:45;;;;;;;25.63;14.93;;;;;;;9.65;100.00;101645.81;5198950;28;20097;-73
2021/09/17 05:09:15;;;;;;;28.63;14.98;;;;;;;9.63;100.00;101647.78;5199021;28;20638;-72
2021/09/17 05:11:46;;;;;;;27.45;15.02;;;;;;;9.62;100.00;101648.78;5199106;28;20032;-73
2021/09/17 05:14:16;;;;;;;27.80;14.98;;;;;;;9.58;100.00;101648.19;5199157;28;20092;-72
2021/09/17 05:16:47;;;;;;;31.23;15.73;;;;;;;9.57;100.00;101650.03;5199118;28;20465;-73
2021/09/17 05:19:18;;;;;;;31.98;16.40;;;;;;;9.54;100.00;101644.97;5199168;28;20040;-72
2021/09/17 05:21:57;;;;;;;29.58;16.35;;;;;;;9.54;100.00;101641.44;5199091;28;20501;-73
2021/09/17 05:24:27;;;;;;;33.33;17.23;;;;;;;9.54;100.00;101641.44;5181420;28;20095;-73
2021/09/17 05:26:58;;;;;;;30.48;15.63;;;;;;;9.53;100.00;101643.25;5198675;28;20029;-72
2021/09/17 05:29:28;;;;;;;34.00;17.67;;;;;;;9.58;100.00;101645.50;5198834;28;20052;-72
2021/09/17 05:32:00;;;;;;;34.40;18.48;;;;;;;9.65;100.00;101643.16;5199697;28;20087;-71
2021/09/17 05:34:31;;;;;;;38.95;17.75;;;;;;;9.69;100.00;101649.88;5185732;28;20022;-72
2021/09/17 05:37:02;;;;;;;30.88;16.17;;;;;;;9.69;100.00;101649.88;5198538;28;20036;-72
2021/09/17 05:39:33;;;;;;;30.08;16.48;;;;;;;9.69;100.00;101653.44;5198933;28;20483;-72
2021/09/17 05:42:03;;;;;;;34.67;17.80;;;;;;;9.70;100.00;101659.63;5198196;28;20037;-71
2021/09/17 05:44:34;;;;;;;35.13;16.63;;;;;;;9.68;100.00;101653.56;5201625;28;20060;-72
2021/09/17 05:47:04;;;;;;;43.25;18.73;;;;;;;9.68;100.00;101656.25;5202743;28;20080;-72
2021/09/17 05:49:35;;;;;;;32.55;16.67;;;;;;;9.70;100.00;101660.50;5202767;28;20032;-72
2021/09/17 05:52:05;;;;;;;43.33;19.15;;;;;;;9.73;100.00;101659.34;5202854;28;20550;-72
2021/09/17 05:54:37;;;;;;;47.17;21.73;;;;;;;9.77;100.00;101660.75;5202469;28;20448;-72
2021/09/17 05:57:08;;;;;;;42.60;20.77;;;;;;;9.82;100.00;101658.50;5202319;28;20020;-71
2021/09/17 05:59:39;;;;;;;46.92;22.40;;;;;;;9.90;100.00;101650.59;5203014;28;20030;-72
2021/09/17 06:02:09;;;;;;;54.00;24.60;;;;;;;10.00;100.00;101659.50;5202834;28;20489;-72
2021/09/17 06:04:39;;;;;;;47.13;21.95;;;;;;;10.10;100.00;101651.44;5203169;28;20075;-73
2021/09/17 06:07:10;;;;;;;54.10;24.02;;;;;;;10.24;100.00;101658.19;5202139;28;20079;-73
2021/09/17 06:09:40;;;;;;;39.08;19.95;;;;;;;10.48;100.00;101657.72;5202539;28;20025;-73
2021/09/17 06:12:11;;;;;;;33.00;18.00;;;;;;;10.73;100.00;101662.44;5202266;28;20040;-72
2021/09/17 06:14:41;;;;;;;42.58;20.33;;;;;;;11.05;100.00;101659.31;5202289;28;20613;-72
2021/09/17 06:17:12;;;;;;;35.13;17.67;;;;;;;11.35;100.00;101671.59;5202127;28;20037;-71
2021/09/17 06:19:42;;;;;;;31.30;17.00;;;;;;;11.59;100.00;101660.22;5201660;28;20437;-71
2021/09/17 06:22:13;;;;;;;37.08;18.77;;;;;;;11.91;100.00;101662.41;5201980;28;20540;-71
2021/09/17 06:24:43;;;;;;;34.58;17.73;;;;;;;12.11;100.00;101663.09;5202050;28;20052;-71
2021/09/17 06:27:14;;;;;;;27.00;14.93;;;;;;;12.38;100.00;101666.63;5201970;28;20205;-71
2021/09/17 06:29:44;;;;;;;29.52;16.13;;;;;;;12.64;100.00;101663.91;5195690;28;20495;-72
2021/09/17 06:32:14;;;;;;;32.22;17.25;;;;;;;12.81;100.00;101659.47;5194097;28;20018;-71
2021/09/17 06:34:45;;;;;;;38.92;21.40;;;;;;;12.91;100.00;101660.19;5196367;28;20029;-71
2021/09/17 06:37:15;;;;;;;50.35;25.92;;;;;;;13.11;100.00;101658.09;5200339;28;20021;-71
2021/09/17 06:39:46;;;;;;;51.40;27.27;;;;;;;13.43;100.00;101662.75;5200706;28;20490;-71
2021/09/17 06:42:16;;;;;;;46.00;25.35;;;;;;;13.80;100.00;101665.00;5200224;28;20060;-71
2021/09/17 06:44:47;;;;;;;59.72;28.63;;;;;;;14.07;100.00;101653.03;5200386;28;20025;-71
2021/09/17 06:47:17;;;;;;;48.67;28.60;;;;;;;14.31;100.00;101657.56;5200051;28;20041;-71
2021/09/17 06:49:48;;;;;;;51.75;28.60;;;;;;;14.62;100.00;101659.56;5200660;28;20029;-71
2021/09/17 06:52:18;;;;;;;55.28;29.65;;;;;;;14.96;100.00;101661.97;5182637;28;20021;-71
2021/09/17 06:54:49;;;;;;;53.90;29.38;;;;;;;15.24;100.00;101662.34;5199728;28;20119;-71
2021/09/17 06:57:19;;;;;;;51.35;29.27;;;;;;;15.48;100.00;101658.66;5199847;28;20026;-71
2021/09/17 06:59:50;;;;;;;49.55;27.38;;;;;;;15.77;100.00;101664.25;5200035;28;20033;-71
2021/09/17 07:02:20;;;;;;;50.50;28.77;;;;;;;15.95;100.00;101663.06;5200259;28;20033;-71
2021/09/17 07:04:50;;;;;;;52.13;29.20;;;;;;;16.22;100.00;101662.50;5200437;28;20103;-71
2021/09/17 07:07:21;;;;;;;56.72;29.88;;;;;;;16.26;100.00;101657.56;5199645;28;20498;-70
2021/09/17 07:09:51;;;;;;;52.17;29.80;;;;;;;16.39;100.00;101656.94;5200126;28;20507;-71
2021/09/17 07:12:22;;;;;;;63.03;31.65;;;;;;;16.71;100.00;101661.16;5200003;28;20553;-71
2021/09/17 07:14:52;;;;;;;52.13;29.67;;;;;;;16.79;100.00;101650.25;5199727;28;20040;-71
2021/09/17 07:17:23;;;;;;;54.83;30.27;;;;;;;17.08;100.00;101660.22;5199866;28;20132;-71
2021/09/17 07:19:54;;;;;;;57.45;30.50;;;;;;;17.37;100.00;101653.91;5199388;28;20402;-71
2021/09/17 07:22:24;;;;;;;52.15;30.58;;;;;;;17.51;100.00;101652.16;5199983;28;20036;-70
2021/09/17 07:24:55;;;;;;;60.72;33.13;;;;;;;17.71;100.00;101657.78;5199793;28;20048;-72
2021/09/17 07:27:25;;;;;;;61.30;33.38;;;;;;;17.89;100.00;101650.09;5199754;28;20036;-71
2021/09/17 07:29:56;;;;;;;58.35;33.00;;;;;;;17.82;100.00;101644.59;5200061;28;20120;-71
2021/09/17 07:32:27;;;;;;;59.50;32.72;;;;;;;18.22;100.00;101644.91;5199650;28;20018;-71
2021/09/17 07:34:57;;;;;;;63.47;32.78;;;;;;;18.54;100.00;101645.38;5199696;28;20021;-71
2021/09/17 07:37:28;;;;;;;59.60;31.50;;;;;;;18.93;100.00;101650.22;5199598;28;20018;-72
2021/09/17 07:39:58;;;;;;;65.45;33.78;;;;;;;19.14;100.00;101646.53;5199067;28;20025;-71
2021/09/17 07:42:29;;;;;;;59.35;33.72;;;;;;;19.46;100.00;101653.13;5200387;28;20049;-71
2021/09/17 07:44:59;;;;;;;62.25;32.90;;;;;;;19.51;100.00;101652.50;5199116;28;20068;-71
2021/09/17 07:47:30;;;;;;;73.57;34.28;;;;;;;19.72;100.00;101654.25;5199628;28;20025;-72
2021/09/17 07:50:00;;;;;;;71.07;37.25;;;;;;;19.59;100.00;101655.03;5199106;28;20029;-72
2021/09/17 07:52:31;;;;;;;59.58;31.65;;;;;;;20.05;100.00;101660.56;5199997;28;20219;-71
2021/09/17 07:55:02;;;;;;;67.50;36.25;;;;;;;19.93;100.00;101662.25;5198768;28;20128;-72
2021/09/17 07:57:32;;;;;;;80.07;37.80;;;;;;;19.81;100.00;101662.00;5198971;28;20036;-71
2021/09/17 08:00:04;;;;;;;70.95;36.75;;;;;;;19.76;100.00;101663.69;5199078;28;20033;-71
2021/09/17 08:02:35;;;;;;;71.32;35.03;;;;;;;19.83;100.00;101659.94;5199724;28;20164;-71
2021/09/17 08:05:06;;;;;;;66.30;34.97;;;;;;;20.14;100.00;101655.75;5199050;28;20114;-71
2021/09/17 08:07:37;;;;;;;74.13;36.80;;;;;;;20.19;100.00;101658.69;5198681;28;20026;-72
2021/09/17 08:10:09;;;;;;;75.28;37.55;;;;;;;20.43;100.00;101662.63;5185878;28;20033;-71
2021/09/17 08:12:39;;;;;;;76.68;41.08;;;;;;;20.25;100.00;101660.56;5199330;28;20577;-72
2021/09/17 08:15:10;;;;;;;72.25;38.60;;;;;;;20.46;100.00;101661.38;5198831;28;20040;-72
2021/09/17 08:17:41;;;;;;;62.45;33.65;;;;;;;21.01;100.00;101654.56;5199183;28;20483;-72
2021/09/17 08:20:12;;;;;;;72.22;36.03;;;;;;;20.47;100.00;101660.34;5197975;28;20045;-71
2021/09/17 08:22:42;;;;;;;76.75;38.80;;;;;;;20.15;100.00;101660.16;5198620;28;20033;-72
2021/09/17 08:25:13;;;;;;;74.97;38.80;;;;;;;20.57;100.00;101661.59;5198801;28;20375;-72
2021/09/17 08:27:43;;;;;;;77.18;37.63;;;;;;;20.92;100.00;101656.69;5198361;28;20092;-71
2021/09/17 08:30:15;;;;;;;69.50;35.20;;;;;;;21.28;100.00;101657.16;5198481;28;20029;-71
2021/09/17 08:32:45;;;;;;;74.72;36.33;;;;;;;21.17;100.00;101655.94;5198398;28;20026;-71
2021/09/17 08:35:16;;;;;;;66.20;35.67;;;;;;;21.28;100.00;101655.25;5198528;28;20032;-72
2021/09/17 08:37:46;;;;;;;65.70;35.03;;;;;;;21.81;100.00;101652.25;5198451;28;20243;-72
2021/09/17 08:40:17;;;;;;;65.22;35.58;;;;;;;21.78;100.00;101651.84;5197934;28;20383;-72
2021/09/17 08:42:48;;;;;;;73.78;37.25;;;;;;;21.66;100.00;101651.72;5198966;28;20112;-72
2021/09/17 08:45:18;;;;;;;69.80;36.05;;;;;;;21.67;100.00;101651.50;5197682;28;20115;-72
2021/09/17 08:47:49;;;;;;;66.30;34.92;;;;;;;21.70;100.00;101653.81;5198068;28;20037;-72
2021/09/17 08:50:20;;;;;;;68.68;36.83;;;;;;;21.53;100.00;101657.25;5197952;28;20029;-72
2021/09/17 08:52:51;;;;;;;65.25;35.20;;;;;;;21.49;100.00;101653.28;5198819;28;20029;-71
2021/09/17 08:55:22;;;;;;;63.42;33.83;;;;;;;21.85;100.00;101656.22;5198281;28;20021;-72
2021/09/17 08:57:52;;;;;;;58.38;32.53;;;;;;;22.16;100.00;101654.53;5197841;28;20021;-71
2021/09/17 09:00:26;;;;;;;57.88;30.50;;;;;;;22.38;100.00;101664.00;5198006;28;20128;-72
2021/09/17 09:02:58;;;;;;;64.32;32.45;;;;;;;22.38;100.00;101658.53;5198351;28;20354;-72
2021/09/17 09:05:33;;;;;;;58.47;27.77;;;;;;;22.73;100.00;101655.22;5198274;28;20021;-72
2021/09/17 09:08:05;;;;;;;50.50;28.67;;;;;;;22.75;100.00;101659.41;5197818;28;20091;-72
2021/09/17 09:10:35;;;;;;;49.00;27.67;;;;;;;22.61;100.00;101662.53;5197639;28;20292;-72
2021/09/17 09:13:06;;;;;;;51.42;29.55;;;;;;;22.47;100.00;101659.91;5198099;28;20025;-72
2021/09/17 09:15:37;;;;;;;50.00;26.13;;;;;;;22.77;100.00;101656.44;5197843;28;20383;-72
2021/09/17 09:18:12;;;;;;;50.17;28.63;;;;;;;22.88;100.00;101663.91;5197731;28;20105;-72
2021/09/17 09:20:46;;;;;;;53.45;27.60;;;;;;;23.28;100.00;101660.69;5201374;28;20488;-72
2021/09/17 09:23:19;;;;;;;56.03;26.60;;;;;;;23.13;100.00;101660.25;5202268;28;20064;-72
2021/09/17 09:25:55;;;;;;;50.85;26.55;;;;;;;22.39;100.00;101671.16;5202226;28;20067;-72
2021/09/17 09:28:35;;;;;;;48.08;26.52;;;;;;;22.33;100.00;101661.09;5202083;28;20064;-72
2021/09/17 09:31:11;;;;;;;48.55;27.23;;;;;;;22.38;100.00;101660.41;5201429;28;20490;-72
2021/09/17 09:33:44;;;;;;;51.80;26.15;;;;;;;22.61;100.00;101657.88;5202207;28;20247;-72
2021/09/17 09:36:17;;;;;;;44.20;25.17;;;;;;;23.04;100.00;101656.97;5201624;28;20029;-72
2021/09/17 09:38:55;;;;;;;40.65;22.55;;;;;;;23.07;100.00;101656.53;5202094;28;20116;-72
2021/09/17 09:41:34;;;;;;;48.25;23.15;;;;;;;23.52;100.00;101664.38;5201381;28;20112;-72
2021/09/17 09:44:18;;;;;;;35.05;20.65;;;;;;;23.60;100.00;101657.75;5201782;28;20206;-72
2021/09/17 09:46:48;;;;;;;34.13;19.00;;;;;;;24.04;100.00;101657.25;5201142;28;20290;-72
2021/09/17 09:49:24;;;;;;;33.70;17.85;;;;;;;23.60;100.00;101660.47;5202619;28;20064;-72
2021/09/17 09:51:57;;;;;;;30.05;15.82;;;;;;;22.93;100.00;101655.84;5202081;28;20030;-73
2021/09/17 09:54:29;;;;;;;26.30;14.38;;;;;;;23.32;100.00;101647.38;5202433;28;20127;-72
2021/09/17 09:57:02;;;;;;;25.77;15.00;;;;;;;23.29;100.00;101643.19;5200974;28;20017;-72
2021/09/17 09:59:34;;;;;;;28.60;16.02;;;;;;;23.12;100.00;101642.16;5200376;28;20040;-72
2021/09/17 10:02:05;;;;;;;31.50;16.77;;;;;;;22.98;100.00;101649.69;5201495;28;20052;-72
2021/09/17 10:04:36;;;;;;;26.75;15.82;;;;;;;22.95;100.00;101645.53;5201186;28;20036;-72
2021/09/17 10:07:09;;;;;;;33.90;16.25;;;;;;;22.67;100.00;101640.56;5200797;28;20407;-72
2021/09/17 10:09:40;;;;;;;23.85;14.15;;;;;;;22.92;100.00;101637.78;5183862;28;20562;-72
2021/09/17 10:12:13;;;;;;;23.90;13.50;;;;;;;22.81;100.00;101643.16;5201600;28;20021;-72
2021/09/17 10:14:47;;;;;;;25.88;13.32;;;;;;;22.98;100.00;101630.53;5200938;28;20037;-72
2021/09/17 10:17:20;;;;;;;22.38;12.52;;;;;;;23.14;100.00;101634.56;5200727;28;20022;-73
2021/09/17 10:19:52;;;;;;;22.50;12.73;;;;;;;23.18;100.00;101638.50;5188304;28;20048;-72
2021/09/17 10:22:34;;;;;;;21.35;11.27;;;;;;;23.38;100.00;101639.06;5200801;28;20255;-72
2021/09/17 10:25:18;;;;;;;18.25;10.63;;;;;;;23.36;100.00;101633.00;5201716;28;20029;-72
2021/09/17 10:28:11;;;;;;;26.60;12.52;;;;;;;23.44;100.00;101642.78;5200594;28;20052;-72
2021/09/17 10:30:42;;;;;;;22.33;12.15;;;;;;;23.15;100.00;101638.97;5200684;28;20376;-73
2021/09/17 10:33:26;;;;;;;21.67;11.82;;;;;;;23.30;100.00;101633.09;5201132;28;20109;-73
2021/09/17 10:35:57;;;;;;;18.75;10.30;;;;;;;23.27;100.00;101634.38;5200266;28;20029;-73
2021/09/17 10:38:30;;;;;;;15.98;9.57;;;;;;;23.14;100.00;101629.06;5200794;28;20022;-73
2021/09/17 10:41:02;;;;;;;20.25;10.82;;;;;;;22.99;100.00;101632.22;5200771;28;20021;-73
2021/09/17 10:43:40;;;;;;;19.55;11.32;;;;;;;22.69;100.00;101629.38;5200814;28;20026;-73
2021/09/17 10:46:20;;;;;;;16.52;9.43;;;;;;;22.80;100.00;101634.13;5182687;28;20108;-73
2021/09/17 10:48:56;;;;;;;12.88;8.30;;;;;;;23.22;100.00;101626.03;5200380;28;20033;-73
2021/09/17 10:51:37;;;;;;;17.77;9.00;;;;;;;23.20;100.00;101633.66;5200348;28;20468;-73
2021/09/17 10:54:10;;;;;;;19.67;11.15;;;;;;;23.14;100.00;101624.44;5200643;28;20021;-73
2021/09/17 10:56:47;;;;;;;16.17;9.82;;;;;;;23.19;100.00;101615.53;5200289;28;20117;-74
2021/09/17 10:59:22;;;;;;;14.32;7.68;;;;;;;23.02;100.00;101614.50;5200130;28;20029;-73
2021/09/17 11:01:54;;;;;;;12.43;7.33;;;;;;;22.94;100.00;101616.50;5200222;28;20029;-73
2021/09/17 11:04:27;;;;;;;13.70;7.43;;;;;;;23.04;100.00;101615.94;5201052;28;20029;-74
2021/09/17 11:07:25;;;;;;;13.75;6.78;;;;;;;23.39;100.00;101615.25;5199367;28;20021;-74
2021/09/17 11:09:57;;;;;;;12.90;7.95;;;;;;;23.27;100.00;101607.84;5199614;28;20075;-73
2021/09/17 11:12:32;;;;;;;9.20;5.40;;;;;;;23.50;99.27;101604.38;5200272;28;20021;-74
2021/09/17 11:15:08;;;;;;;16.17;8.25;;;;;;;23.52;100.00;101604.13;5200184;28;20498;-74
2021/09/17 11:17:43;;;;;;;12.70;5.88;;;;;;;23.67;100.00;101596.31;5199745;28;20112;-72
2021/09/17 11:20:23;;;;;;;9.95;5.72;;;;;;;23.75;100.00;101597.91;5199642;28;20030;-72
2021/09/17 11:22:56;;;;;;;14.75;7.72;;;;;;;23.82;100.00;101597.78;5199733;28;20033;-72
2021/09/17 11:25:37;;;;;;;13.85;7.95;;;;;;;23.84;100.00;101593.72;5200528;28;20438;-72